首页
METAR-TAF:

METAR-TAF

机场 :

舊金山國際機場

旧金山, 加利福尼亚州, 美国

纬度: 37-37-11N, 经度: 122-21-53W, 海拔: 3米

当前天气观测

该预报发布于13分钟前的20:15 UTC
风速13节,风向西转西北
温度 21°C
湿度 60%
气压 1018 hPa
能見度: 16.1公里
少量云层高于600英尺

METAR: KSFO 172015Z 30013KT 10SM FEW006 21/13 A3005 RMK AO2 WSHFT 1955 T02110128 $

时间: 13:28 (20:28 UTC)

预报

该预报发布于3小时和8分钟前的17:20 UTC
预报有效从17日的 18点(UTC)到 18日的 24点(UTC)
风速7节,风向西北
能見度: 10公里
天空无云
从 17日的 1900点(UTC)
风速10节,风向西北
能見度: 10公里
天空无云
从 17日的 2200点(UTC)
风速16节,风向西转西北
能見度: 10公里
天空无云
从 18日的 0430点(UTC)
风速7节,风向西转西北
能見度: 10公里
散云层高于1000英尺
短暂存在
从 18日的 12点(UTC)到 18日的 16点(UTC)
多云层高于1000英尺
从 18日的 1700点(UTC)
风速5节,风向北转西北
能見度: 10公里
少量云层高于1100英尺
从 18日的 2100点(UTC)
风速14节,风向西转西北
能見度: 10公里
天空无云

TAF: KSFO 171720Z 1718/1824 32007KT P6SM SKC FM171900 31010KT P6SM SKC FM172200 30016KT P6SM SKC FM180430 29007KT P6SM SCT010 TEMPO 1812/1816 BKN010 FM181700 34005KT P6SM FEW011 FM182100 29014KT P6SM SKC

超过4000个机场的气象观测和天气预报(METAR&TAF报告)。

可查询的气象台以黄色和红色小点在地图上表示。

将鼠标移到小点上方,可查看气象台名称。

然后点击查看天气观测和预报。

如需切换地图:点击带黑十字的绿色按钮放大地图;点击带横线的绿色按钮缩小地图;或者点击绿色箭头查看邻近地区的地图。


METAR-TAF: